Time;durP1;ratioP1;P1;durP2;ratioP2;P2;SDS_P1;SDS_P2;PMS_P1;PMS_P2;Temp;Humidity;BMP_temperature;BMP_pressure;BME280_temperature;BME280_humidity;BME280_pressure;Samples;Min_cycle;Max_cycle;Signal;HPM_P1;HPM_P2
2023/09/05 00:00:22;;;;;;;4.65;2.90;;;17.90;99.90;;;;;;2585479;54;20964;31
2023/09/05 00:02:56;;;;;;;4.05;2.60;;;17.90;99.90;;;;;;2586096;54;19956;31
2023/09/05 00:05:32;;;;;;;5.90;2.90;;;17.80;99.90;;;;;;2586270;54;20035;31
2023/09/05 00:08:10;;;;;;;3.60;2.50;;;17.80;99.90;;;;;;2604641;46;20030;31
2023/09/05 00:10:50;;;;;;;3.22;2.33;;;17.80;99.90;;;;;;2604507;46;21046;31
2023/09/05 00:13:26;;;;;;;3.05;1.90;;;17.80;99.90;;;;;;2585665;54;20034;31
2023/09/05 00:16:06;;;;;;;4.05;3.05;;;17.80;99.90;;;;;;2604759;46;20767;31
2023/09/05 00:18:41;;;;;;;3.15;1.70;;;17.70;99.90;;;;;;2586260;54;20034;31
2023/09/05 00:21:18;;;;;;;7.28;3.10;;;17.70;99.90;;;;;;2604211;46;20058;31
2023/09/05 00:23:56;;;;;;;6.03;2.92;;;17.70;99.90;;;;;;2585871;54;20053;31
2023/09/05 00:26:34;;;;;;;6.68;2.83;;;17.60;99.90;;;;;;2585289;54;20867;31
2023/09/05 00:29:11;;;;;;;4.85;2.55;;;17.50;99.90;;;;;;2585063;54;20050;31
2023/09/05 00:31:52;;;;;;;4.00;2.63;;;17.40;99.90;;;;;;2585097;54;20034;31
2023/09/05 00:34:29;;;;;;;5.38;2.55;;;17.40;99.90;;;;;;2586277;46;20890;31
2023/09/05 00:37:07;;;;;;;4.95;2.50;;;17.30;99.90;;;;;;2585015;54;20921;31
2023/09/05 00:39:45;;;;;;;5.10;2.60;;;17.30;99.90;;;;;;2585176;54;20884;31
2023/09/05 00:42:21;;;;;;;5.07;3.40;;;17.20;99.90;;;;;;2592066;46;20617;31
2023/09/05 00:45:00;;;;;;;7.43;3.20;;;17.20;99.90;;;;;;2585065;54;20023;31
2023/09/05 00:47:42;;;;;;;4.72;2.72;;;17.10;99.90;;;;;;2585066;54;20976;31
2023/09/05 00:50:18;;;;;;;6.18;3.00;;;17.10;99.90;;;;;;2585745;54;20767;31
2023/09/05 00:52:53;;;;;;;4.67;2.63;;;17.10;99.90;;;;;;2585191;54;20880;31
2023/09/05 00:55:27;;;;;;;3.50;2.35;;;17.00;99.90;;;;;;2585148;54;20027;31
2023/09/05 00:58:05;;;;;;;4.67;2.70;;;17.00;99.90;;;;;;2604688;46;20765;31
2023/09/05 01:00:53;;;;;;;3.45;1.88;;;17.00;99.90;;;;;;2586120;54;20022;31
2023/09/05 01:03:39;;;;;;;4.53;3.03;;;16.90;99.90;;;;;;2585938;54;20031;31
2023/09/05 01:06:16;;;;;;;4.75;2.55;;;16.90;99.90;;;;;;2585771;54;20027;31
2023/09/05 01:08:59;;;;;;;3.60;2.20;;;16.90;99.90;;;;;;2586153;54;20026;31
2023/09/05 01:11:37;;;;;;;4.28;3.10;;;16.80;99.90;;;;;;2585958;54;20022;31
2023/09/05 01:14:16;;;;;;;4.88;3.40;;;16.80;99.90;;;;;;2585870;54;20760;31
2023/09/05 01:16:50;;;;;;;6.18;3.17;;;16.80;99.90;;;;;;2604525;46;20924;31
2023/09/05 01:19:30;;;;;;;6.15;3.33;;;16.70;99.90;;;;;;2772427;31;20513;31
2023/09/05 01:22:11;;;;;;;5.55;3.83;;;16.70;99.90;;;;;;2585579;54;20925;31
2023/09/05 01:24:56;;;;;;;5.23;3.67;;;16.70;99.90;;;;;;2586039;54;20030;31
2023/09/05 01:27:33;;;;;;;5.40;2.87;;;16.70;99.90;;;;;;2585811;54;20034;31
2023/09/05 01:30:12;;;;;;;5.60;3.50;;;16.60;99.90;;;;;;2585802;54;20058;31
2023/09/05 01:32:54;;;;;;;4.80;3.00;;;16.60;99.90;;;;;;2604071;46;20030;31
2023/09/05 01:35:39;;;;;;;4.90;2.55;;;16.50;99.90;;;;;;2585801;54;20874;31
2023/09/05 01:38:17;;;;;;;4.80;2.75;;;16.50;99.90;;;;;;2585634;54;20768;31
2023/09/05 01:41:02;;;;;;;4.70;3.27;;;16.40;99.90;;;;;;2585733;54;20954;31
2023/09/05 01:43:46;;;;;;;5.97;2.58;;;16.40;99.90;;;;;;2604186;46;20026;31
2023/09/05 01:46:25;;;;;;;4.75;3.05;;;16.30;99.90;;;;;;2587395;46;20981;31
2023/09/05 01:49:03;;;;;;;4.85;3.40;;;16.30;99.90;;;;;;2604346;46;20097;31
2023/09/05 01:51:53;;;;;;;4.85;3.45;;;16.30;99.90;;;;;;2585726;54;20124;31
2023/09/05 01:54:33;;;;;;;5.37;3.17;;;16.30;99.90;;;;;;2604252;46;20916;31
2023/09/05 01:57:16;;;;;;;4.27;2.60;;;16.20;99.90;;;;;;2585777;54;20027;31
2023/09/05 02:00:08;;;;;;;4.70;3.00;;;16.20;99.90;;;;;;2585629;54;20628;31
2023/09/05 02:02:52;;;;;;;4.95;3.35;;;16.20;99.90;;;;;;2604526;47;20023;31
2023/09/05 02:05:36;;;;;;;4.82;3.00;;;16.20;99.90;;;;;;2585686;54;20027;31
2023/09/05 02:08:16;;;;;;;5.60;3.65;;;16.20;99.90;;;;;;2585606;54;20898;31
2023/09/05 02:10:50;;;;;;;4.60;3.33;;;16.10;99.90;;;;;;2585845;54;20031;31
2023/09/05 02:13:36;;;;;;;7.72;3.85;;;16.00;99.90;;;;;;2585940;54;20660;31
2023/09/05 02:16:19;;;;;;;4.60;3.20;;;16.00;99.90;;;;;;2584982;54;20932;31
2023/09/05 02:18:56;;;;;;;5.68;3.58;;;16.00;99.90;;;;;;2585492;54;20108;31
2023/09/05 02:21:32;;;;;;;4.72;3.10;;;15.90;99.90;;;;;;2585549;54;20979;31
2023/09/05 02:24:12;;;;;;;4.10;2.90;;;15.90;99.90;;;;;;2604237;47;20027;31
2023/09/05 02:26:47;;;;;;;4.82;3.40;;;15.90;99.90;;;;;;2604345;47;20030;31
2023/09/05 02:29:32;;;;;;;4.17;2.77;;;15.80;99.90;;;;;;2683390;39;20329;31
2023/09/05 02:32:34;;;;;;;4.18;3.60;;;15.80;99.90;;;;;;2585792;54;19935;31
2023/09/05 02:35:10;;;;;;;5.65;3.75;;;15.70;99.90;;;;;;2604080;47;20052;31
2023/09/05 02:37:56;;;;;;;;;;;;;;;;;;;;;
2023/09/05 02:40:35;;;;;;;5.35;3.03;;;15.70;99.90;;;;;;2701132;39;20559;31
2023/09/05 02:43:25;;;;;;;5.57;3.85;;;15.60;99.90;;;;;;2585390;54;20105;31
2023/09/05 02:46:04;;;;;;;6.70;3.00;;;15.60;99.90;;;;;;2584598;54;20042;31
2023/09/05 02:48:48;;;;;;;4.25;3.35;;;15.60;99.90;;;;;;2597903;47;21008;31
2023/09/05 02:51:29;;;;;;;4.75;3.55;;;15.60;99.90;;;;;;2584744;54;20053;31
2023/09/05 02:57:26;;;;;;;3.80;3.10;;;15.60;99.90;;;;;;2586135;54;20234;31
2023/09/05 03:00:04;;;;;;;6.43;3.90;;;15.50;99.90;;;;;;2586504;54;21179;31
2023/09/05 03:02:44;;;;;;;6.85;3.90;;;15.40;99.90;;;;;;2585381;54;20022;31
2023/09/05 03:05:24;;;;;;;4.55;3.40;;;15.40;99.90;;;;;;2586358;54;20056;31
2023/09/05 03:08:06;;;;;;;6.45;4.20;;;15.40;99.90;;;;;;2604748;46;20029;31
2023/09/05 03:11:01;;;;;;;6.30;3.70;;;15.40;99.90;;;;;;2586163;54;21016;31
2023/09/05 03:13:36;;;;;;;8.05;3.35;;;15.30;99.90;;;;;;2586413;54;20035;31
2023/09/05 03:16:19;;;;;;;5.40;4.20;;;15.30;99.90;;;;;;2585496;54;20030;31
2023/09/05 03:19:07;;;;;;;5.60;2.63;;;15.20;99.90;;;;;;2683946;39;20505;31
2023/09/05 03:21:59;;;;;;;4.75;3.10;;;15.30;99.90;;;;;;2586460;54;20035;31
2023/09/05 03:24:43;;;;;;;5.30;3.58;;;15.30;99.90;;;;;;2586148;54;20180;31
2023/09/05 03:30:55;;;;;;;5.47;3.60;;;15.30;99.90;;;;;;2604719;46;21038;31
2023/09/05 03:42:50;;;;;;;6.97;4.78;;;15.20;99.90;;;;;;2604860;46;20974;31
2023/09/05 04:11:15;;;;;;;7.20;4.45;;;14.80;99.90;;;;;;2585028;54;20022;31
2023/09/05 04:17:25;;;;;;;7.20;4.15;;;14.80;99.90;;;;;;2585336;54;20093;31
2023/09/05 04:23:15;;;;;;;6.80;4.50;;;14.70;99.90;;;;;;2588297;46;20042;31
2023/09/05 04:52:31;;;;;;;7.30;4.63;;;14.50;99.90;;;;;;2585783;54;21039;31
2023/09/05 05:01:17;;;;;;;8.23;4.72;;;14.70;99.90;;;;;;2585788;54;20025;31
2023/09/05 05:04:16;;;;;;;5.50;4.50;;;14.90;99.90;;;;;;2585076;54;20847;31
2023/09/05 05:07:00;;;;;;;7.95;4.45;;;14.90;99.90;;;;;;2586582;46;20109;31
2023/09/05 05:09:53;;;;;;;7.37;4.23;;;15.00;99.90;;;;;;2604267;46;20030;31
2023/09/05 05:12:44;;;;;;;9.27;4.20;;;15.00;99.90;;;;;;2604526;46;20746;31
2023/09/05 05:15:59;;;;;;;6.93;4.78;;;15.10;99.90;;;;;;2585610;54;20109;31
2023/09/05 05:21:53;;;;;;;6.60;4.30;;;15.10;99.90;;;;;;2585684;54;21049;31
2023/09/05 05:24:37;;;;;;;6.47;4.93;;;15.10;99.90;;;;;;2585809;54;20893;31
2023/09/05 05:27:21;;;;;;;17.40;8.25;;;15.20;99.90;;;;;;2585885;54;19940;31
2023/09/05 05:29:57;;;;;;;6.93;4.55;;;15.30;99.90;;;;;;2585722;54;20748;31
2023/09/05 05:32:36;;;;;;;7.17;4.27;;;15.50;99.90;;;;;;2585756;54;20791;31
2023/09/05 05:35:14;;;;;;;6.23;4.60;;;15.50;99.90;;;;;;2683783;39;22419;31
2023/09/05 05:37:54;;;;;;;6.55;4.63;;;15.60;99.90;;;;;;2585560;54;20049;31
2023/09/05 05:40:30;;;;;;;9.75;4.30;;;15.60;99.90;;;;;;2604381;46;20857;31
2023/09/05 05:43:08;;;;;;;6.95;4.95;;;15.70;99.90;;;;;;2585830;54;20064;31
2023/09/05 05:45:49;;;;;;;8.67;4.70;;;15.80;99.90;;;;;;2585349;54;20934;31
2023/09/05 05:48:24;;;;;;;7.20;4.63;;;16.00;99.90;;;;;;2585548;54;20974;31
2023/09/05 05:51:13;;;;;;;5.15;3.83;;;16.40;99.90;;;;;;2585545;54;20037;31
2023/09/05 05:53:49;;;;;;;8.00;4.60;;;16.80;99.90;;;;;;2585829;54;20032;31
2023/09/05 05:56:28;;;;;;;;;;;17.20;99.90;;;;;;2586379;54;20255;31
2023/09/05 05:59:08;;;;;;;5.15;3.65;;;17.60;99.90;;;;;;2585654;54;20013;31
2023/09/05 06:01:43;;;;;;;5.00;4.07;;;18.00;99.90;;;;;;2585792;54;20030;31
2023/09/05 06:04:19;;;;;;;9.85;4.47;;;18.30;99.90;;;;;;2604086;47;20958;31
2023/09/05 06:06:53;;;;;;;8.30;4.27;;;18.60;99.90;;;;;;2585818;54;20989;31
2023/09/05 06:09:27;;;;;;;7.97;4.55;;;19.00;99.90;;;;;;2585402;54;20915;31
2023/09/05 06:12:04;;;;;;;7.00;3.92;;;19.20;99.90;;;;;;2584851;54;20037;31
2023/09/05 06:14:44;;;;;;;7.57;4.90;;;19.50;99.90;;;;;;2585064;54;20037;31
2023/09/05 06:17:23;;;;;;;6.50;3.80;;;19.80;99.90;;;;;;2682967;39;22349;31
2023/09/05 06:20:02;;;;;;;7.25;4.70;;;20.10;99.90;;;;;;2682773;39;22434;31
2023/09/05 06:22:38;;;;;;;10.90;5.20;;;20.30;99.90;;;;;;2584818;54;20973;31
2023/09/05 06:25:14;;;;;;;8.60;4.85;;;20.60;99.90;;;;;;2585702;54;20046;31
2023/09/05 06:27:50;;;;;;;5.27;3.93;;;20.80;99.90;;;;;;2585267;54;20031;31
2023/09/05 06:30:29;;;;;;;7.60;4.70;;;21.00;99.90;;;;;;2585748;54;20027;31
2023/09/05 06:33:03;;;;;;;6.67;4.40;;;21.30;99.90;;;;;;2586505;54;20073;31
2023/09/05 06:35:39;;;;;;;6.75;4.20;;;21.50;99.90;;;;;;2601911;46;20097;31
2023/09/05 06:38:17;;;;;;;8.05;4.40;;;21.80;99.90;;;;;;2586479;54;20053;31
2023/09/05 06:40:51;;;;;;;7.18;4.55;;;21.90;99.90;;;;;;2586786;54;20026;31
2023/09/05 06:43:23;;;;;;;6.00;4.10;;;22.20;99.90;;;;;;2586553;54;20736;31
2023/09/05 06:46:06;;;;;;;5.85;3.90;;;22.40;99.90;;;;;;2586599;54;20030;31
2023/09/05 06:48:40;;;;;;;4.25;3.15;;;22.60;99.90;;;;;;2604859;46;20871;31
2023/09/05 06:51:15;;;;;;;5.22;3.05;;;22.70;99.90;;;;;;2586515;54;20038;31
2023/09/05 06:53:47;;;;;;;6.55;3.25;;;23.00;99.90;;;;;;2586580;54;20733;31
2023/09/05 06:56:20;;;;;;;4.70;3.15;;;23.10;99.90;;;;;;2604954;46;20855;31
2023/09/05 06:58:57;;;;;;;5.05;2.88;;;23.30;99.90;;;;;;2586230;54;21027;31
2023/09/05 07:01:37;;;;;;;4.28;2.30;;;23.60;99.90;;;;;;2586466;54;19934;31
2023/09/05 07:04:14;;;;;;;3.10;2.20;;;23.70;99.90;;;;;;2605100;46;20903;31
2023/09/05 07:06:55;;;;;;;3.77;2.40;;;23.90;99.90;;;;;;2585980;54;20052;31
2023/09/05 07:09:31;;;;;;;5.43;2.53;;;24.00;99.90;;;;;;2683369;39;22308;31
2023/09/05 07:12:08;;;;;;;4.72;2.15;;;24.10;99.90;;;;;;2604588;46;20658;31
2023/09/05 07:14:40;;;;;;;4.30;2.00;;;24.10;99.90;;;;;;2586540;54;20030;31
2023/09/05 07:17:22;;;;;;;3.00;1.60;;;24.30;99.90;;;;;;2684167;39;20405;31
2023/09/05 07:20:08;;;;;;;3.42;2.33;;;24.40;99.90;;;;;;2586388;54;20245;31
2023/09/05 07:22:45;;;;;;;5.10;1.95;;;24.50;99.90;;;;;;2586502;54;20033;31
2023/09/05 07:25:20;;;;;;;3.53;2.58;;;24.50;99.90;;;;;;2598470;46;21429;31
2023/09/05 07:27:55;;;;;;;3.80;2.00;;;24.60;99.90;;;;;;2585515;54;20081;31
2023/09/05 07:30:37;;;;;;;4.65;2.60;;;24.50;99.90;;;;;;2586259;54;20030;31
2023/09/05 07:35:47;;;;;;;5.20;2.45;;;24.60;99.90;;;;;;2604695;46;20157;31
2023/09/05 07:38:23;;;;;;;7.50;2.53;;;24.80;99.90;;;;;;2591338;46;21243;31
2023/09/05 07:41:04;;;;;;;5.65;2.88;;;24.80;99.90;;;;;;2702332;39;20381;31
2023/09/05 07:43:40;;;;;;;5.57;2.13;;;25.00;99.90;;;;;;2585542;54;20034;31
2023/09/05 07:46:13;;;;;;;3.67;2.40;;;25.20;99.90;;;;;;2586340;54;20912;31
2023/09/05 07:48:49;;;;;;;3.55;2.10;;;25.40;99.90;;;;;;2586234;54;20038;31
2023/09/05 07:51:29;;;;;;;4.80;2.10;;;25.60;99.90;;;;;;2604800;46;20768;31
2023/09/05 07:54:06;;;;;;;4.50;2.57;;;25.70;99.90;;;;;;2586172;54;20117;31
2023/09/05 07:56:42;;;;;;;3.73;2.23;;;25.80;99.90;;;;;;2683453;39;22575;31
2023/09/05 07:59:20;;;;;;;6.20;2.28;;;25.80;99.90;;;;;;2586069;54;20089;31
2023/09/05 08:01:58;;;;;;;6.70;3.17;;;25.90;99.90;;;;;;2604833;46;20027;31
2023/09/05 08:04:37;;;;;;;5.35;2.35;;;25.90;99.90;;;;;;2586086;54;19941;31
2023/09/05 08:07:16;;;;;;;4.90;2.20;;;25.90;99.90;;;;;;2683475;39;22354;31
2023/09/05 08:09:50;;;;;;;4.03;2.17;;;25.90;99.90;;;;;;2585826;54;20868;31
2023/09/05 08:12:24;;;;;;;3.63;2.30;;;26.00;99.90;;;;;;2586159;54;20033;31
2023/09/05 08:15:00;;;;;;;4.30;2.72;;;25.90;99.90;;;;;;2586418;54;20099;31
2023/09/05 08:17:34;;;;;;;3.63;1.92;;;26.10;99.90;;;;;;2604440;46;20870;31
2023/09/05 08:20:12;;;;;;;4.20;2.05;;;26.20;99.90;;;;;;2604734;46;20924;31
2023/09/05 08:22:50;;;;;;;4.20;1.90;;;26.20;99.90;;;;;;2585456;54;20765;31
2023/09/05 08:25:23;;;;;;;2.95;2.00;;;26.00;99.90;;;;;;2585899;54;20911;31
2023/09/05 08:27:59;;;;;;;2.70;1.60;;;25.80;99.90;;;;;;2585621;54;20904;31
2023/09/05 08:30:36;;;;;;;3.23;1.73;;;25.80;99.90;;;;;;2586353;54;21175;31
2023/09/05 08:33:14;;;;;;;5.32;2.25;;;25.80;99.90;;;;;;2586066;54;20097;31
2023/09/05 08:35:47;;;;;;;2.08;1.58;;;25.80;99.90;;;;;;2586174;54;20089;31
2023/09/05 08:38:25;;;;;;;3.42;1.40;;;25.80;99.90;;;;;;2603161;46;20918;31
2023/09/05 08:41:06;;;;;;;4.65;1.67;;;25.80;99.90;;;;;;2586451;54;20829;31
2023/09/05 08:43:42;;;;;;;3.20;1.70;;;25.80;99.90;;;;;;2585195;54;20981;31
2023/09/05 08:46:16;;;;;;;4.25;1.90;;;25.80;99.90;;;;;;2586026;54;20933;31
2023/09/05 08:48:53;;;;;;;5.20;1.50;;;25.80;99.90;;;;;;2586331;54;20029;31
2023/09/05 08:51:33;;;;;;;4.85;1.50;;;25.60;99.90;;;;;;2586161;54;20407;31
2023/09/05 08:54:08;;;;;;;4.60;1.90;;;25.70;99.90;;;;;;2585970;54;20055;31
2023/09/05 08:56:46;;;;;;;4.05;2.00;;;25.70;99.90;;;;;;2586077;54;20856;31
2023/09/05 08:59:21;;;;;;;3.25;1.50;;;25.80;99.90;;;;;;2586269;54;20057;31
2023/09/05 09:01:56;;;;;;;4.63;1.75;;;26.00;99.90;;;;;;2586057;54;20935;31
2023/09/05 09:04:31;;;;;;;;;;;26.10;99.90;;;;;;2586253;54;20809;31
2023/09/05 09:07:10;;;;;;;3.15;1.52;;;26.30;99.90;;;;;;2585902;54;19934;31
2023/09/05 09:09:46;;;;;;;2.50;1.37;;;26.50;99.90;;;;;;2604343;46;20108;31
2023/09/05 09:12:29;;;;;;;2.80;1.10;;;26.50;99.90;;;;;;2585236;54;20298;31
2023/09/05 09:15:11;;;;;;;6.20;1.50;;;26.40;99.90;;;;;;2586006;54;20058;31
2023/09/05 09:17:51;;;;;;;7.23;1.53;;;26.40;99.90;;;;;;2604410;46;20034;31
2023/09/05 09:20:27;;;;;;;3.28;1.60;;;26.30;99.80;;;;;;2585988;54;20033;31
2023/09/05 09:22:59;;;;;;;4.18;1.35;;;26.30;99.80;;;;;;2586102;54;20049;31
2023/09/05 09:25:35;;;;;;;2.40;1.50;;;26.40;99.90;;;;;;2586084;54;20909;31
2023/09/05 09:28:13;;;;;;;1.77;1.25;;;26.50;99.90;;;;;;2586254;54;20038;31
2023/09/05 09:30:49;;;;;;;4.78;1.63;;;26.60;99.80;;;;;;2604539;46;20030;31
2023/09/05 09:33:24;;;;;;;4.03;1.70;;;26.70;99.80;;;;;;2600485;46;20093;31
2023/09/05 09:36:06;;;;;;;3.33;1.67;;;26.80;99.80;;;;;;2585724;54;20062;31
2023/09/05 09:38:41;;;;;;;4.10;1.65;;;26.80;98.90;;;;;;2604780;46;20736;31
2023/09/05 09:41:16;;;;;;;3.72;1.58;;;26.80;99.20;;;;;;2586146;54;20042;31
2023/09/05 09:43:58;;;;;;;3.28;1.55;;;26.90;99.60;;;;;;2604273;46;20074;31
2023/09/05 09:46:31;;;;;;;2.90;1.40;;;27.10;98.80;;;;;;2604661;46;20914;31
2023/09/05 09:49:06;;;;;;;2.83;1.27;;;27.10;98.20;;;;;;2603879;46;20057;31
2023/09/05 09:51:39;;;;;;;2.87;1.80;;;27.10;97.70;;;;;;2585671;54;20875;31
2023/09/05 09:54:16;;;;;;;2.60;1.65;;;27.10;98.30;;;;;;2585711;54;20993;31
2023/09/05 09:56:53;;;;;;;4.97;1.42;;;27.00;97.30;;;;;;2585084;54;20034;31
2023/09/05 09:59:35;;;;;;;3.08;1.35;;;27.10;96.70;;;;;;2585849;54;20026;31
2023/09/05 10:02:13;;;;;;;4.45;1.40;;;27.20;97.30;;;;;;2585997;54;20042;31
2023/09/05 10:04:47;;;;;;;3.45;1.67;;;27.30;96.80;;;;;;2586659;54;20110;31
2023/09/05 10:07:21;;;;;;;3.17;1.23;;;27.30;96.30;;;;;;2585970;54;20876;31
2023/09/05 10:09:56;;;;;;;4.70;1.33;;;27.20;95.90;;;;;;2683539;39;21407;31
2023/09/05 10:12:31;;;;;;;3.40;1.83;;;27.20;96.00;;;;;;2586588;54;20837;31
2023/09/05 10:15:13;;;;;;;4.00;1.60;;;27.30;96.80;;;;;;2598066;46;20026;31
2023/09/05 10:17:48;;;;;;;3.35;1.20;;;27.10;95.60;;;;;;2586259;54;20030;31
2023/09/05 10:20:25;;;;;;;2.55;1.75;;;27.10;95.20;;;;;;2586687;54;20768;31
2023/09/05 10:23:05;;;;;;;2.05;1.00;;;26.90;94.80;;;;;;2683760;39;22376;31
2023/09/05 10:25:39;;;;;;;2.58;1.45;;;26.90;95.70;;;;;;2586581;54;20909;31
2023/09/05 10:28:14;;;;;;;1.70;1.25;;;27.00;95.90;;;;;;2586488;54;20870;31
2023/09/05 10:30:51;;;;;;;;;;;26.90;95.40;;;;;;2586776;54;20052;31
2023/09/05 10:33:36;;;;;;;3.22;1.33;;;26.80;94.80;;;;;;2585776;54;20028;31
2023/09/05 10:36:38;;;;;;;2.53;1.27;;;26.80;95.10;;;;;;2586733;54;20038;31
2023/09/05 10:39:27;;;;;;;2.05;1.23;;;26.80;95.40;;;;;;2586084;54;21115;31
2023/09/05 10:41:59;;;;;;;2.38;1.25;;;26.70;96.00;;;;;;2586560;54;20057;31
2023/09/05 10:44:38;;;;;;;3.17;1.38;;;26.70;95.40;;;;;;2586562;54;20181;31
2023/09/05 10:47:39;;;;;;;3.75;1.60;;;26.70;96.20;;;;;;2586513;54;20034;31
2023/09/05 10:50:15;;;;;;;2.92;1.25;;;26.60;95.40;;;;;;2586175;54;20851;31
2023/09/05 10:52:50;;;;;;;3.00;1.30;;;26.70;95.50;;;;;;2604781;46;20031;31
2023/09/05 10:55:40;;;;;;;4.03;1.50;;;26.80;95.30;;;;;;2604963;46;20269;31
2023/09/05 10:58:53;;;;;;;2.47;1.60;;;26.90;95.90;;;;;;2586320;54;20030;31
2023/09/05 11:01:56;;;;;;;2.40;1.50;;;27.00;95.00;;;;;;2589572;46;20882;31
2023/09/05 11:04:37;;;;;;;3.30;1.20;;;27.00;95.10;;;;;;2586030;54;20253;31
2023/09/05 11:07:13;;;;;;;2.17;1.33;;;27.00;94.50;;;;;;2604968;46;20843;31
2023/09/05 11:09:49;;;;;;;2.95;1.30;;;27.10;95.70;;;;;;2585481;54;20916;31
2023/09/05 11:12:27;;;;;;;4.40;1.40;;;27.00;94.40;;;;;;2605003;46;20784;31
2023/09/05 11:15:04;;;;;;;2.60;1.50;;;26.90;93.20;;;;;;2586202;54;20030;31
2023/09/05 11:17:39;;;;;;;2.63;1.40;;;26.70;94.30;;;;;;2586429;54;20077;31
2023/09/05 11:20:18;;;;;;;2.47;1.40;;;26.60;94.10;;;;;;2604702;46;20117;31
2023/09/05 11:22:54;;;;;;;2.80;1.50;;;26.40;94.00;;;;;;2604716;46;21101;31
2023/09/05 11:25:26;;;;;;;;;;;26.40;94.60;;;;;;2586635;54;20887;31
2023/09/05 11:28:00;;;;;;;2.13;1.05;;;26.40;95.80;;;;;;2604665;46;19941;31
2023/09/05 11:30:40;;;;;;;2.00;1.20;;;26.40;94.40;;;;;;2604850;46;20073;31
2023/09/05 11:33:14;;;;;;;3.45;1.60;;;26.40;94.90;;;;;;2586214;54;21447;31
2023/09/05 11:35:53;;;;;;;2.00;1.30;;;26.40;95.10;;;;;;2598961;46;20535;31
2023/09/05 11:38:28;;;;;;;2.40;1.45;;;26.30;94.50;;;;;;2586435;54;20769;31
2023/09/05 11:41:08;;;;;;;3.35;1.35;;;26.30;95.10;;;;;;2605017;46;20934;31
2023/09/05 11:43:48;;;;;;;2.30;1.50;;;26.30;95.20;;;;;;2604247;46;20644;31
2023/09/05 11:46:23;;;;;;;3.05;1.60;;;26.30;95.10;;;;;;2586298;54;20901;31
2023/09/05 11:48:58;;;;;;;2.55;1.73;;;26.30;95.10;;;;;;2585877;54;20031;31
2023/09/05 11:51:37;;;;;;;1.73;1.38;;;26.30;94.80;;;;;;2586231;54;20022;31
2023/09/05 11:54:11;;;;;;;;;;;26.30;96.10;;;;;;2586737;54;20836;31
2023/09/05 11:56:44;;;;;;;3.53;1.67;;;26.30;94.90;;;;;;2602847;46;20747;31
2023/09/05 11:59:21;;;;;;;3.55;2.28;;;26.30;96.10;;;;;;2585050;54;20782;31
2023/09/05 12:01:55;;;;;;;3.20;1.80;;;26.30;95.50;;;;;;2585179;54;20034;31
2023/09/05 12:04:37;;;;;;;3.60;1.70;;;26.30;95.60;;;;;;2585257;54;20918;31
2023/09/05 12:07:19;;;;;;;5.53;2.08;;;26.30;95.90;;;;;;2604552;46;20069;31
2023/09/05 12:09:57;;;;;;;3.20;2.03;;;26.30;95.40;;;;;;2585880;54;20104;31
2023/09/05 12:12:32;;;;;;;2.95;2.05;;;26.30;94.30;;;;;;2586094;54;21016;31
2023/09/05 12:15:12;;;;;;;4.38;1.85;;;26.30;95.30;;;;;;2586193;54;20858;31
2023/09/05 12:17:49;;;;;;;4.50;2.30;;;26.10;95.40;;;;;;2586143;54;20866;31
2023/09/05 12:20:24;;;;;;;3.15;1.90;;;26.00;96.60;;;;;;2586195;54;20101;31
2023/09/05 12:23:00;;;;;;;3.33;2.03;;;26.00;95.50;;;;;;2585331;54;20325;31
2023/09/05 12:25:39;;;;;;;2.63;1.60;;;25.90;95.70;;;;;;2683699;39;20393;31
2023/09/05 12:28:30;;;;;;;2.90;1.80;;;25.90;96.20;;;;;;2586217;54;19962;31
2023/09/05 12:31:10;;;;;;;2.60;1.83;;;25.90;97.50;;;;;;2604753;46;20894;31
2023/09/05 12:33:47;;;;;;;2.95;1.50;;;25.90;96.70;;;;;;2754891;31;20770;31
2023/09/05 12:36:20;;;;;;;2.83;1.70;;;25.90;96.30;;;;;;2605005;46;20767;31
2023/09/05 12:39:00;;;;;;;5.05;2.00;;;25.90;96.20;;;;;;2586328;54;20046;31
2023/09/05 12:41:36;;;;;;;3.17;2.10;;;25.80;96.80;;;;;;2586127;54;20927;31
2023/09/05 12:44:16;;;;;;;8.05;1.92;;;25.80;96.20;;;;;;2604481;46;20861;31
2023/09/05 12:46:54;;;;;;;3.40;1.27;;;25.80;96.40;;;;;;2586286;54;20480;31
2023/09/05 12:49:31;;;;;;;2.72;1.52;;;25.90;96.00;;;;;;2586270;54;20928;31
2023/09/05 12:52:09;;;;;;;2.60;1.73;;;25.90;96.80;;;;;;2683789;39;20469;31
2023/09/05 12:57:20;;;;;;;3.30;1.80;;;26.00;97.00;;;;;;2586393;54;20861;31
2023/09/05 12:59:55;;;;;;;2.80;1.43;;;26.00;96.90;;;;;;2586269;54;20920;31
2023/09/05 13:02:36;;;;;;;5.15;1.80;;;26.00;97.80;;;;;;2586019;54;20049;31
2023/09/05 13:05:15;;;;;;;2.22;1.65;;;26.00;96.60;;;;;;2604475;46;20839;31
2023/09/05 13:07:52;;;;;;;2.90;1.80;;;26.00;96.50;;;;;;2585874;54;20880;31
2023/09/05 13:10:28;;;;;;;3.15;1.77;;;26.00;97.00;;;;;;2585155;54;20741;31
2023/09/05 13:13:08;;;;;;;3.42;1.77;;;25.90;96.50;;;;;;2585125;54;20018;31
2023/09/05 13:15:43;;;;;;;3.70;1.60;;;25.90;98.10;;;;;;2604620;46;20022;31
2023/09/05 13:18:19;;;;;;;2.30;1.80;;;25.80;98.20;;;;;;2585925;54;20054;31
2023/09/05 13:20:55;;;;;;;2.78;1.88;;;25.90;98.80;;;;;;2584915;54;20879;31
2023/09/05 13:23:32;;;;;;;3.85;1.85;;;25.90;97.80;;;;;;2702418;39;20372;31
2023/09/05 13:26:18;;;;;;;3.20;1.67;;;25.90;97.90;;;;;;2683924;39;20367;31
2023/09/05 13:28:59;;;;;;;2.60;1.40;;;25.90;97.70;;;;;;2585725;54;20954;31
2023/09/05 13:31:36;;;;;;;3.33;1.40;;;25.90;96.50;;;;;;2604430;46;20237;31
2023/09/05 13:34:10;;;;;;;4.47;1.90;;;25.80;97.50;;;;;;2586278;54;20826;31
2023/09/05 13:36:46;;;;;;;3.13;1.77;;;25.70;97.20;;;;;;2585122;54;20046;31
2023/09/05 13:39:22;;;;;;;2.40;1.65;;;25.60;97.10;;;;;;2585897;54;20850;31
2023/09/05 13:42:01;;;;;;;4.60;1.85;;;25.60;97.20;;;;;;2597454;46;21217;31
2023/09/05 13:44:38;;;;;;;3.97;2.00;;;25.50;97.80;;;;;;2585236;54;20053;31
2023/09/05 13:47:18;;;;;;;3.13;1.80;;;25.40;98.20;;;;;;2586010;54;21648;31
2023/09/05 13:49:58;;;;;;;3.85;1.90;;;25.30;97.90;;;;;;2585032;54;20239;31
2023/09/05 13:52:33;;;;;;;2.30;1.70;;;25.30;98.10;;;;;;2584756;54;20851;31
2023/09/05 13:55:12;;;;;;;3.60;1.58;;;25.30;99.10;;;;;;2585128;54;20023;31
2023/09/05 13:57:48;;;;;;;2.45;1.80;;;25.30;99.00;;;;;;2585923;54;20644;31
2023/09/05 14:00:25;;;;;;;3.67;2.33;;;25.30;99.90;;;;;;2585791;54;20886;31
2023/09/05 14:03:00;;;;;;;3.97;2.00;;;25.30;99.90;;;;;;2585672;54;20022;31
2023/09/05 14:05:35;;;;;;;6.10;1.92;;;25.30;99.60;;;;;;2585979;54;20054;31
2023/09/05 14:08:11;;;;;;;2.65;1.55;;;25.20;99.90;;;;;;2585020;54;20895;31
2023/09/05 14:10:46;;;;;;;5.50;1.80;;;25.20;99.50;;;;;;2584792;54;20035;31
2023/09/05 14:13:20;;;;;;;2.90;1.88;;;25.20;99.40;;;;;;2586177;54;20026;31
2023/09/05 14:15:59;;;;;;;2.53;1.80;;;25.10;99.30;;;;;;2585141;54;20901;31
2023/09/05 14:18:36;;;;;;;3.13;2.05;;;25.10;99.20;;;;;;2604414;47;20086;31
2023/09/05 14:21:11;;;;;;;2.42;1.52;;;25.10;99.30;;;;;;2585967;54;20022;31
2023/09/05 14:23:45;;;;;;;2.20;1.65;;;25.10;99.90;;;;;;2585527;54;20097;31
2023/09/05 14:26:27;;;;;;;3.00;2.00;;;25.10;99.90;;;;;;2585692;54;20025;31
2023/09/05 14:29:00;;;;;;;3.00;1.90;;;25.10;99.90;;;;;;2604242;47;21235;31
2023/09/05 14:31:38;;;;;;;2.80;1.90;;;25.10;99.90;;;;;;2585699;54;20819;31
2023/09/05 14:34:12;;;;;;;2.33;1.67;;;25.10;99.90;;;;;;2585359;54;20847;31
2023/09/05 14:36:46;;;;;;;4.20;1.70;;;25.20;99.90;;;;;;2585022;54;20035;31
2023/09/05 14:39:21;;;;;;;2.80;1.80;;;25.20;99.70;;;;;;2603987;47;20030;31
2023/09/05 14:41:56;;;;;;;3.28;1.65;;;25.30;99.90;;;;;;2604228;47;20081;31
2023/09/05 14:44:33;;;;;;;2.75;1.70;;;25.30;99.90;;;;;;2584781;54;20157;31
2023/09/05 14:47:10;;;;;;;2.50;1.80;;;25.30;99.90;;;;;;2585761;54;20832;31
2023/09/05 14:49:45;;;;;;;2.80;2.05;;;25.20;99.90;;;;;;2586346;54;20238;31
2023/09/05 14:52:25;;;;;;;;;;;25.30;99.90;;;;;;2586383;54;20085;31
2023/09/05 14:54:57;;;;;;;3.45;1.80;;;25.20;99.00;;;;;;2605166;46;19934;31
2023/09/05 14:57:30;;;;;;;3.42;1.75;;;25.20;97.80;;;;;;2586664;54;20885;31
2023/09/05 15:00:04;;;;;;;3.03;1.87;;;25.20;99.10;;;;;;2604921;46;20958;31
2023/09/05 15:02:45;;;;;;;3.10;1.80;;;25.20;99.50;;;;;;2586494;54;20960;31
2023/09/05 15:05:20;;;;;;;3.83;1.60;;;25.20;99.50;;;;;;2588065;46;21267;31
2023/09/05 15:07:53;;;;;;;2.08;1.42;;;25.10;99.90;;;;;;2586492;54;21115;31
2023/09/05 15:10:27;;;;;;;2.65;1.73;;;25.10;99.00;;;;;;2586548;54;20875;31
2023/09/05 15:13:03;;;;;;;1.65;1.30;;;25.10;99.00;;;;;;2604803;46;20976;31
2023/09/05 15:15:35;;;;;;;;;;;25.10;99.50;;;;;;2586273;54;20989;31
2023/09/05 15:18:09;;;;;;;3.30;1.95;;;25.00;99.10;;;;;;2586467;54;19962;31
2023/09/05 15:20:44;;;;;;;2.70;1.75;;;25.00;99.60;;;;;;2586600;54;20730;31
2023/09/05 15:23:17;;;;;;;3.10;1.60;;;25.00;99.60;;;;;;2586652;54;20970;31
2023/09/05 15:25:53;;;;;;;2.77;1.70;;;25.00;98.80;;;;;;2604685;46;20033;31
2023/09/05 15:28:26;;;;;;;2.80;1.88;;;24.90;98.30;;;;;;2586111;54;20077;31